Time;durP1;ratioP1;P1;durP2;ratioP2;P2;SDS_P1;SDS_P2;PMS_P1;PMS_P2;Temp;Humidity;BMP_temperature;BMP_pressure;BME280_temperature;BME280_humidity;BME280_pressure;Samples;Min_cycle;Max_cycle;Signal;HPM_P1;HPM_P2
2024/02/19 00:00:12;;;;;;;1.52;0.85;;;;;;;33.62;30.47;101036.81;7394714;19;20022;-86
2024/02/19 00:02:39;;;;;;;1.55;0.20;;;;;;;33.41;30.65;101022.22;7397699;19;20118;-86
2024/02/19 00:05:06;;;;;;;3.50;1.50;;;;;;;33.60;30.28;101025.88;7394529;19;20018;-86
2024/02/19 00:07:32;;;;;;;4.38;1.33;;;;;;;33.19;30.18;101024.22;7393762;19;20014;-86
2024/02/19 00:09:58;;;;;;;1.38;0.82;;;;;;;33.41;30.48;101019.34;7392630;19;20018;-86
2024/02/19 00:12:24;;;;;;;1.55;0.35;;;;;;;33.60;30.26;101022.22;7393642;19;20033;-86
2024/02/19 00:14:50;;;;;;;0.90;0.50;;;;;;;34.33;29.57;101023.25;7393648;19;20022;-86
2024/02/19 00:17:17;;;;;;;0.40;0.40;;;;;;;34.15;29.89;101024.09;7397634;19;20049;-86
2024/02/19 00:19:43;;;;;;;2.55;0.38;;;;;;;34.31;29.11;101005.75;7393529;19;20018;-86
2024/02/19 00:22:09;;;;;;;1.98;0.95;;;;;;;33.88;29.59;101001.16;7394738;19;20360;-86
2024/02/19 00:24:35;;;;;;;2.78;0.43;;;;;;;32.44;30.28;101000.34;7392917;19;20024;-86
2024/02/19 00:27:02;;;;;;;2.75;0.50;;;;;;;31.65;31.09;100989.63;7392949;19;20010;-86
2024/02/19 00:29:28;;;;;;;2.45;0.32;;;;;;;31.66;31.17;100988.28;7393856;19;20047;-86
2024/02/19 00:31:54;;;;;;;2.83;0.93;;;;;;;31.73;30.74;100988.16;7392331;19;20010;-86
2024/02/19 00:34:20;;;;;;;1.80;0.38;;;;;;;31.24;30.98;100991.28;7394057;19;20014;-86
2024/02/19 00:36:46;;;;;;;2.95;1.00;;;;;;;32.38;29.86;100994.09;7393818;19;20014;-87
2024/02/19 00:39:13;;;;;;;5.20;0.65;;;;;;;31.56;30.47;100981.69;7393790;19;20023;-87
2024/02/19 00:41:39;;;;;;;2.58;0.38;;;;;;;31.90;30.38;100984.47;7392875;19;20011;-86
2024/02/19 00:44:05;;;;;;;2.08;0.73;;;;;;;30.65;30.73;100982.69;7392861;19;20484;-86
2024/02/19 00:46:31;;;;;;;12.93;1.20;;;;;;;30.14;31.73;100982.53;7394435;19;20010;-86
2024/02/19 00:48:57;;;;;;;0.85;0.52;;;;;;;30.36;31.10;100981.63;7390789;19;20023;-86
2024/02/19 00:51:24;;;;;;;3.25;0.88;;;;;;;29.98;31.46;100979.78;7391787;19;20010;-86
2024/02/19 00:53:50;;;;;;;1.20;1.02;;;;;;;29.64;32.03;100982.47;7389878;19;20025;-86
2024/02/19 00:56:16;;;;;;;0.68;0.50;;;;;;;30.22;31.80;100971.75;7392812;19;20018;-86
2024/02/19 00:58:42;;;;;;;2.70;0.82;;;;;;;30.10;31.67;100976.44;7393538;19;20356;-88
2024/02/19 01:01:08;;;;;;;5.43;1.40;;;;;;;30.37;31.48;100994.63;7393027;19;20089;-90
2024/02/19 01:03:35;;;;;;;2.22;0.90;;;;;;;30.48;30.83;100985.53;7392413;19;20463;-87
2024/02/19 01:06:01;;;;;;;2.83;1.35;;;;;;;27.99;33.47;100981.41;7388839;19;20022;-86
2024/02/19 01:08:27;;;;;;;7.88;1.45;;;;;;;27.30;34.26;100988.22;7391123;19;20530;-86
2024/02/19 01:10:54;;;;;;;0.52;0.40;;;;;;;29.30;32.60;100988.00;7391030;19;20015;-89
2024/02/19 01:13:21;;;;;;;0.60;0.47;;;;;;;29.80;31.63;100991.78;7392366;19;20459;-87
2024/02/19 01:15:47;;;;;;;1.35;0.55;;;;;;;30.41;31.27;100978.50;7392519;19;20026;-87
2024/02/19 01:18:15;;;;;;;2.05;0.45;;;;;;;29.96;31.65;100978.84;7392978;19;20021;-86
2024/02/19 01:20:41;;;;;;;3.30;1.00;;;;;;;29.08;32.47;100983.06;7395736;19;20026;-87
2024/02/19 01:23:07;;;;;;;0.10;0.10;;;;;;;30.27;31.41;100956.38;7391874;19;20104;-89
2024/02/19 01:25:34;;;;;;;1.15;0.43;;;;;;;30.46;31.25;100957.38;7390317;19;20023;-85
2024/02/19 01:28:00;;;;;;;0.38;0.15;;;;;;;30.69;30.88;100949.28;7390753;19;20368;-87
2024/02/19 01:30:26;;;;;;;0.20;0.20;;;;;;;31.61;29.81;100940.31;7387720;19;20022;-86
2024/02/19 01:32:52;;;;;;;1.73;0.70;;;;;;;31.15;30.33;100940.16;7395168;19;20033;-87
2024/02/19 01:35:18;;;;;;;2.58;0.15;;;;;;;30.59;30.98;100947.66;7388902;19;20716;-87
2024/02/19 01:37:45;;;;;;;0.47;0.38;;;;;;;29.77;31.80;100944.88;7392177;19;20019;-86
2024/02/19 01:40:12;;;;;;;0.35;0.32;;;;;;;29.63;31.80;100940.72;7391605;19;20082;-87
2024/02/19 01:42:38;;;;;;;0.10;0.10;;;;;;;29.59;32.17;100945.34;7394934;19;20030;-87
2024/02/19 01:45:07;;;;;;;0.13;0.13;;;;;;;28.13;33.41;100948.38;7391480;19;20040;-89
2024/02/19 01:47:34;;;;;;;0.35;0.20;;;;;;;28.69;32.79;100940.72;7392780;19;20579;-86
2024/02/19 01:50:01;;;;;;;0.75;0.75;;;;;;;27.73;33.86;100944.50;7390202;19;20093;-87
2024/02/19 01:52:28;;;;;;;0.50;0.40;;;;;;;27.48;34.34;100937.78;7393501;19;20105;-87
2024/02/19 01:54:54;;;;;;;0.70;0.35;;;;;;;27.74;34.22;100935.31;7390350;19;20063;-87
2024/02/19 01:57:20;;;;;;;1.30;0.20;;;;;;;29.07;32.71;100924.91;7391998;19;20374;-88
2024/02/19 01:59:47;;;;;;;3.42;0.40;;;;;;;29.17;32.48;100917.25;7391072;19;20024;-88
2024/02/19 02:02:15;;;;;;;10.70;0.65;;;;;;;26.67;35.14;100912.56;7392691;19;20021;-86
2024/02/19 02:04:41;;;;;;;4.13;0.65;;;;;;;29.36;32.62;100908.16;7389677;19;20015;-87
2024/02/19 02:07:08;;;;;;;0.25;0.25;;;;;;;30.55;30.89;100904.97;7387743;19;20007;-91
2024/02/19 02:09:34;;;;;;;8.23;0.65;;;;;;;31.00;30.64;100909.44;7389851;19;20092;-91
2024/02/19 02:12:00;;;;;;;0.82;0.32;;;;;;;31.25;30.63;100912.94;7391221;19;20007;-91
2024/02/19 02:14:26;;;;;;;0.55;0.52;;;;;;;32.73;29.37;100917.50;7392226;19;20362;-91
2024/02/19 02:16:52;;;;;;;1.30;0.43;;;;;;;32.83;29.32;100912.50;7393829;19;20037;-91
2024/02/19 02:19:18;;;;;;;1.85;0.63;;;;;;;33.04;28.96;100908.25;7397160;19;20088;-91
2024/02/19 02:21:45;;;;;;;0.20;0.20;;;;;;;32.86;29.10;100919.19;7397536;19;20018;-91
2024/02/19 02:24:11;;;;;;;0.43;0.20;;;;;;;32.05;29.72;100936.00;7398198;19;20026;-91
2024/02/19 02:26:41;;;;;;;0.30;0.10;;;;;;;31.57;30.54;100922.72;7395394;19;20026;-91
2024/02/19 02:29:07;;;;;;;1.00;0.57;;;;;;;31.60;30.61;100915.78;7396645;19;20010;-91
2024/02/19 02:31:33;;;;;;;1.17;0.47;;;;;;;32.58;29.37;100909.16;7395889;19;20023;-91
2024/02/19 02:33:59;;;;;;;0.98;0.30;;;;;;;30.90;31.25;100907.84;7397345;19;20338;-91
2024/02/19 02:36:26;;;;;;;2.00;0.80;;;;;;;31.20;30.98;100890.97;7396319;19;20023;-91
2024/02/19 02:38:52;;;;;;;0.55;0.55;;;;;;;30.23;32.19;100892.81;7399348;19;20023;-91
2024/02/19 02:41:18;;;;;;;1.75;1.08;;;;;;;31.15;31.32;100883.34;7399986;19;20019;-91
2024/02/19 02:43:44;;;;;;;1.00;0.50;;;;;;;30.50;31.96;100876.44;7397265;19;20015;-91
2024/02/19 02:46:10;;;;;;;3.40;0.60;;;;;;;30.25;32.57;100858.47;7399364;19;20017;-90
2024/02/19 02:48:36;;;;;;;0.10;0.10;;;;;;;30.49;31.96;100877.81;7395493;19;20018;-91
2024/02/19 02:51:02;;;;;;;0.73;0.65;;;;;;;30.59;32.13;100870.03;7395410;19;20018;-91
2024/02/19 02:53:28;;;;;;;0.85;0.10;;;;;;;29.80;32.70;100879.78;7395275;19;20499;-91
2024/02/19 02:55:54;;;;;;;2.50;0.47;;;;;;;30.32;32.33;100883.56;7395385;19;20033;-90
2024/02/19 02:58:20;;;;;;;3.83;0.57;;;;;;;31.54;31.15;100883.59;7396647;19;20014;-90
2024/02/19 03:00:48;;;;;;;0.65;0.30;;;;;;;31.23;31.37;100875.38;7398320;19;20041;-91
2024/02/19 03:03:14;;;;;;;0.93;0.35;;;;;;;31.31;30.95;100873.16;7397375;19;20041;-91
2024/02/19 03:05:40;;;;;;;2.47;0.20;;;;;;;30.12;31.81;100876.03;7394385;19;20022;-91
2024/02/19 03:08:07;;;;;;;0.13;0.10;;;;;;;29.82;32.23;100863.44;7393731;19;20036;-90
2024/02/19 03:10:33;;;;;;;0.47;0.47;;;;;;;29.73;32.31;100875.59;7397625;19;20014;-91
2024/02/19 03:12:59;;;;;;;0.10;0.10;;;;;;;29.92;32.37;100881.59;7396206;19;20011;-90
2024/02/19 03:15:25;;;;;;;0.65;0.40;;;;;;;29.69;32.03;100880.94;7396586;19;20015;-91
2024/02/19 03:17:51;;;;;;;1.77;0.68;;;;;;;30.19;31.94;100880.97;7397350;19;20421;-91
2024/02/19 03:20:18;;;;;;;0.10;0.03;;;;;;;29.20;32.53;100863.66;7396634;19;20019;-91
2024/02/19 03:22:45;;;;;;;1.55;0.43;;;;;;;28.52;33.39;100881.84;7398552;19;20078;-90
2024/02/19 03:25:11;;;;;;;0.70;0.52;;;;;;;30.69;31.24;100867.97;7397223;19;20022;-91
2024/02/19 03:27:37;;;;;;;0.50;0.45;;;;;;;28.33;34.00;100838.53;7394427;19;20018;-90
2024/02/19 03:30:04;;;;;;;6.50;0.90;;;;;;;29.22;33.13;100840.88;7395983;19;20479;-91
2024/02/19 03:32:30;;;;;;;2.10;0.55;;;;;;;28.42;33.62;100843.66;7397663;19;20013;-91
2024/02/19 03:34:57;;;;;;;0.57;0.30;;;;;;;28.29;34.19;100846.75;7397545;19;20010;-91
2024/02/19 03:37:23;;;;;;;7.75;0.85;;;;;;;27.32;35.42;100825.34;7396728;19;20034;-91
2024/02/19 03:39:49;;;;;;;0.22;0.10;;;;;;;25.80;37.33;100817.31;7394962;19;20409;-90
2024/02/19 03:42:15;;;;;;;0.10;0.10;;;;;;;24.32;39.71;100805.22;7396492;19;20033;-91
2024/02/19 03:44:41;;;;;;;3.20;0.63;;;;;;;25.64;38.80;100807.13;7399707;19;20077;-91
2024/02/19 03:47:08;;;;;;;0.52;0.20;;;;;;;26.16;38.03;100814.56;7399266;19;20018;-91
2024/02/19 03:49:34;;;;;;;2.38;0.85;;;;;;;27.23;36.73;100816.53;7397137;19;20018;-91
2024/02/19 03:52:00;;;;;;;0.47;0.10;;;;;;;26.62;37.87;100804.13;7396035;19;20014;-91
2024/02/19 03:54:26;;;;;;;0.10;0.10;;;;;;;27.43;36.64;100807.84;7399686;19;20019;-91
2024/02/19 03:56:52;;;;;;;13.35;0.98;;;;;;;25.80;38.47;100808.00;7394785;19;20026;-91
2024/02/19 03:59:18;;;;;;;1.15;0.63;;;;;;;27.55;36.23;100791.81;7395285;19;20071;-91
2024/02/19 04:01:44;;;;;;;0.10;0.00;;;;;;;25.41;39.42;100792.63;7394505;19;20022;-91
2024/02/19 04:04:10;;;;;;;1.85;0.20;;;;;;;25.23;39.96;100779.31;7394108;19;20018;-91
2024/02/19 04:06:36;;;;;;;2.47;1.20;;;;;;;28.61;35.80;100779.44;7396147;19;20018;-91
2024/02/19 04:09:02;;;;;;;6.47;0.30;;;;;;;29.91;34.28;100776.63;7392034;19;20021;-91
2024/02/19 04:11:29;;;;;;;2.38;0.30;;;;;;;31.34;33.00;100761.78;7392456;19;20022;-91
2024/02/19 04:13:55;;;;;;;0.98;0.98;;;;;;;28.88;35.12;100768.97;7393295;19;20015;-91
2024/02/19 04:16:21;;;;;;;0.32;0.20;;;;;;;27.16;37.24;100765.84;7393653;19;20017;-91
2024/02/19 04:18:47;;;;;;;0.43;0.20;;;;;;;27.17;37.21;100753.81;7395101;19;20034;-91
2024/02/19 04:21:13;;;;;;;1.88;0.10;;;;;;;26.93;37.35;100746.53;7394561;19;20503;-91
2024/02/19 04:23:40;;;;;;;4.53;0.98;;;;;;;26.65;38.16;100745.84;7395787;19;20018;-91
2024/02/19 04:26:06;;;;;;;0.50;0.35;;;;;;;26.86;37.56;100767.28;7392533;19;20010;-91
2024/02/19 04:28:32;;;;;;;0.50;0.30;;;;;;;28.82;35.37;100751.22;7394867;19;20021;-91
2024/02/19 04:30:58;;;;;;;0.50;0.50;;;;;;;29.00;35.16;100752.84;7394297;19;20033;-91
2024/02/19 04:33:24;;;;;;;0.73;0.25;;;;;;;29.28;34.89;100754.59;7392309;19;20031;-91
2024/02/19 04:35:50;;;;;;;0.73;0.70;;;;;;;30.36;33.69;100745.91;7392500;19;20019;-91
2024/02/19 04:38:16;;;;;;;0.57;0.32;;;;;;;29.12;34.92;100748.16;7393801;19;20010;-91
2024/02/19 04:40:42;;;;;;;0.68;0.30;;;;;;;29.73;34.45;100742.72;7396481;19;20050;-91
2024/02/19 04:43:09;;;;;;;1.13;0.30;;;;;;;30.26;33.39;100748.66;7395371;19;20077;-91
2024/02/19 04:45:35;;;;;;;0.10;0.10;;;;;;;30.62;33.26;100748.06;7394984;19;20023;-91
2024/02/19 04:48:02;;;;;;;0.30;0.17;;;;;;;30.82;33.01;100758.31;7394395;19;20014;-91
2024/02/19 04:50:28;;;;;;;0.22;0.10;;;;;;;31.10;32.77;100760.59;7393380;19;20010;-91
2024/02/19 04:52:54;;;;;;;1.50;0.93;;;;;;;31.11;32.28;100756.38;7391498;19;20015;-91
2024/02/19 04:55:20;;;;;;;0.32;0.20;;;;;;;33.06;30.71;100755.41;7391450;19;20437;-90
2024/02/19 04:57:46;;;;;;;1.60;0.47;;;;;;;33.96;29.83;100750.22;7394763;19;20010;-91
2024/02/19 05:00:12;;;;;;;1.20;0.10;;;;;;;34.50;29.30;100752.41;7394488;19;20014;-91
2024/02/19 05:02:38;;;;;;;0.10;0.00;;;;;;;35.89;28.06;100753.31;7396759;19;20022;-91
2024/02/19 05:05:05;;;;;;;0.22;0.22;;;;;;;36.26;27.41;100751.22;7392130;19;20074;-91
2024/02/19 05:07:31;;;;;;;0.30;0.30;;;;;;;36.56;27.06;100760.94;7391874;19;20026;-91
2024/02/19 05:09:57;;;;;;;0.20;0.20;;;;;;;37.52;26.40;100770.69;7394323;19;20030;-91
2024/02/19 05:12:23;;;;;;;0.15;0.15;;;;;;;37.77;25.84;100779.31;7394040;19;20022;-91
2024/02/19 05:14:49;;;;;;;0.25;0.25;;;;;;;38.00;25.90;100790.72;7396091;19;20082;-91
2024/02/19 05:17:15;;;;;;;0.65;0.45;;;;;;;37.90;25.53;100807.66;7398652;19;20053;-91
2024/02/19 05:19:41;;;;;;;4.85;0.85;;;;;;;36.93;26.20;100793.59;7394517;19;20021;-91
2024/02/19 05:22:08;;;;;;;13.35;1.63;;;;;;;36.66;26.50;100793.47;7392712;19;20479;-91
2024/02/19 05:24:34;;;;;;;2.90;0.55;;;;;;;36.52;26.77;100783.19;7392769;19;20017;-90
2024/02/19 05:27:00;;;;;;;0.95;0.35;;;;;;;36.58;26.35;100787.19;7390364;19;20010;-90
2024/02/19 05:29:26;;;;;;;0.85;0.32;;;;;;;36.49;26.64;100785.97;7392671;19;20025;-91
2024/02/19 05:31:53;;;;;;;11.98;0.55;;;;;;;36.88;25.99;100780.22;7392459;19;20010;-91
2024/02/19 05:34:19;;;;;;;0.10;0.10;;;;;;;36.61;26.35;100765.59;7393657;19;20086;-90
2024/02/19 05:36:45;;;;;;;0.90;0.35;;;;;;;36.96;26.00;100756.69;7393904;19;20031;-91
2024/02/19 05:39:11;;;;;;;4.32;0.30;;;;;;;37.18;26.22;100749.97;7392473;19;20035;-90
2024/02/19 05:41:38;;;;;;;2.83;1.23;;;;;;;36.58;25.98;100752.34;7393221;19;20104;-90
2024/02/19 05:44:04;;;;;;;0.35;0.10;;;;;;;35.61;26.89;100763.94;7391915;19;20014;-91
2024/02/19 05:46:32;;;;;;;7.32;0.32;;;;;;;36.35;26.43;100766.94;7394315;19;20029;-91
2024/02/19 05:48:58;;;;;;;4.30;0.77;;;;;;;35.70;26.89;100776.78;7390679;19;20010;-91
2024/02/19 05:51:26;;;;;;;0.10;0.00;;;;;;;35.49;27.21;100763.22;7390435;19;20483;-91
2024/02/19 05:53:54;;;;;;;0.57;0.45;;;;;;;35.36;27.07;100772.50;7388944;19;20025;-91
2024/02/19 05:56:20;;;;;;;2.95;0.60;;;;;;;35.14;27.39;100779.78;7389762;19;20395;-90
2024/02/19 05:58:47;;;;;;;10.70;0.65;;;;;;;34.98;27.01;100775.81;7395137;19;20019;-91
2024/02/19 06:01:14;;;;;;;2.50;0.82;;;;;;;35.08;27.28;100785.22;7390913;19;20029;-90
2024/02/19 06:03:40;;;;;;;0.40;0.32;;;;;;;35.38;27.20;100787.13;7391048;19;20483;-91
2024/02/19 06:06:06;;;;;;;0.47;0.47;;;;;;;35.22;27.18;100776.63;7389900;19;20017;-90
2024/02/19 06:08:32;;;;;;;0.30;0.20;;;;;;;35.01;27.65;100754.34;7391111;19;20018;-90
2024/02/19 06:10:59;;;;;;;0.75;0.75;;;;;;;35.08;27.20;100747.56;7394113;19;20014;-91
2024/02/19 06:13:25;;;;;;;3.58;0.82;;;;;;;34.93;27.44;100771.91;7388737;19;20086;-91
2024/02/19 06:15:51;;;;;;;3.40;0.60;;;;;;;34.88;27.54;100760.72;7392641;19;20018;-90
2024/02/19 06:18:17;;;;;;;9.45;3.67;;;;;;;34.66;27.39;100760.03;7390440;19;20014;-90
2024/02/19 06:20:43;;;;;;;16.85;4.22;;;;;;;34.19;28.14;100759.06;7390028;19;20014;-91
2024/02/19 06:23:09;;;;;;;21.85;4.13;;;;;;;33.73;28.56;100747.19;7394715;19;20090;-91
2024/02/19 06:25:35;;;;;;;3.05;1.95;;;;;;;33.85;28.33;100748.00;7390433;19;20408;-90
2024/02/19 06:28:02;;;;;;;5.18;1.70;;;;;;;34.01;28.28;100749.16;7387868;19;20010;-90
2024/02/19 06:30:28;;;;;;;1.40;0.85;;;;;;;33.56;28.63;100756.13;7389160;19;20042;-90
2024/02/19 06:32:54;;;;;;;1.00;0.90;;;;;;;31.55;30.44;100767.03;7388383;19;20031;-90
2024/02/19 06:35:20;;;;;;;1.55;0.45;;;;;;;29.29;32.59;100776.94;7388775;19;20025;-90
2024/02/19 06:37:48;;;;;;;2.55;0.73;;;;;;;29.27;32.91;100773.91;7389719;19;20007;-91
2024/02/19 06:40:14;;;;;;;7.53;1.05;;;;;;;30.11;32.23;100771.81;7390243;19;20073;-90
2024/02/19 06:42:41;;;;;;;0.80;0.60;;;;;;;29.95;32.81;100771.22;7391701;19;20026;-90
2024/02/19 06:45:07;;;;;;;0.50;0.50;;;;;;;29.92;32.49;100755.19;7393384;19;20032;-90
2024/02/19 06:47:33;;;;;;;0.50;0.50;;;;;;;30.36;32.49;100748.78;7392102;19;20014;-90
2024/02/19 06:49:59;;;;;;;0.68;0.65;;;;;;;29.78;32.69;100762.59;7390533;19;20018;-90
2024/02/19 06:52:25;;;;;;;0.98;0.65;;;;;;;30.68;31.63;100768.69;7390633;19;20476;-91
2024/02/19 06:54:51;;;;;;;1.45;0.55;;;;;;;28.87;33.72;100784.66;7393460;19;20044;-90
2024/02/19 06:57:18;;;;;;;0.60;0.17;;;;;;;29.08;33.68;100776.50;7391886;19;20043;-90
2024/02/19 06:59:44;;;;;;;0.35;0.30;;;;;;;27.30;35.82;100782.25;7391573;19;20018;-90
2024/02/19 07:02:10;;;;;;;2.40;0.30;;;;;;;26.96;36.86;100782.53;7388872;19;20018;-90
2024/02/19 07:04:39;;;;;;;2.10;1.30;;;;;;;26.92;37.18;100790.75;7389899;19;20015;-90
2024/02/19 07:07:08;;;;;;;1.17;0.30;;;;;;;26.63;37.47;100789.28;7400306;19;20482;-90
2024/02/19 07:09:40;;;;;;;1.92;0.90;;;;;;;26.68;37.52;100793.31;7397346;19;20018;-90
2024/02/19 07:12:07;;;;;;;16.77;0.57;;;;;;;27.68;37.03;100794.47;7398802;19;20023;-90
2024/02/19 07:14:33;;;;;;;4.28;0.47;;;;;;;26.20;38.66;100797.84;7395921;19;20043;-90
2024/02/19 07:17:00;;;;;;;0.30;0.28;;;;;;;26.76;37.99;100794.13;7399573;19;20014;-90
2024/02/19 07:19:26;;;;;;;0.10;0.08;;;;;;;27.27;37.05;100794.81;7400767;19;20025;-91
2024/02/19 07:21:52;;;;;;;8.07;1.00;;;;;;;28.60;35.77;100795.09;7396838;19;20010;-90
2024/02/19 07:24:18;;;;;;;0.75;0.30;;;;;;;28.46;35.80;100795.31;7396533;19;20010;-90
2024/02/19 07:26:44;;;;;;;6.47;1.00;;;;;;;28.30;36.03;100779.53;7395364;19;20044;-91
2024/02/19 07:29:10;;;;;;;2.10;0.85;;;;;;;29.20;34.88;100786.97;7396750;19;20010;-90
2024/02/19 07:31:36;;;;;;;2.72;0.25;;;;;;;29.79;34.80;100777.72;7399385;19;20034;-89
2024/02/19 07:34:02;;;;;;;0.85;0.50;;;;;;;29.63;34.90;100777.06;7395843;19;20037;-91
2024/02/19 07:36:29;;;;;;;0.10;0.10;;;;;;;31.44;32.46;100777.00;7395371;19;20017;-92
2024/02/19 07:38:55;;;;;;;0.57;0.20;;;;;;;32.67;31.73;100778.56;7397869;19;20035;-92
2024/02/19 07:41:21;;;;;;;9.73;1.00;;;;;;;33.56;30.17;100779.22;7398492;19;20028;-92
2024/02/19 07:43:49;;;;;;;5.30;0.63;;;;;;;34.42;29.72;100777.88;7397233;19;20027;-91
2024/02/19 07:46:17;;;;;;;2.05;1.30;;;;;;;35.70;28.43;100777.56;7396622;19;20022;-92
2024/02/19 07:48:43;;;;;;;0.95;0.50;;;;;;;35.59;28.31;100772.53;7393256;19;20025;-90
2024/02/19 07:51:10;;;;;;;0.22;0.22;;;;;;;34.17;29.34;100784.19;7397334;19;20022;-91
2024/02/19 07:53:36;;;;;;;9.70;0.65;;;;;;;33.94;29.46;100784.78;7395179;19;20022;-91
2024/02/19 07:56:05;;;;;;;0.43;0.22;;;;;;;33.18;30.25;100796.72;7393679;19;20013;-91
2024/02/19 07:58:34;;;;;;;0.47;0.47;;;;;;;33.05;30.10;100795.06;7395072;19;20022;-90
2024/02/19 08:01:03;;;;;;;0.20;0.10;;;;;;;33.71;29.60;100796.19;7397154;19;20018;-91
2024/02/19 08:03:30;;;;;;;19.75;0.68;;;;;;;33.65;29.61;100803.66;7397358;19;20040;-91
2024/02/19 08:05:56;;;;;;;0.20;0.00;;;;;;;33.81;29.60;100811.31;7394022;19;20014;-91
2024/02/19 08:08:23;;;;;;;0.20;0.20;;;;;;;33.44;29.97;100813.03;7392255;19;20015;-91
2024/02/19 08:10:49;;;;;;;0.10;0.10;;;;;;;33.00;30.02;100821.38;7394176;19;20023;-91
2024/02/19 08:13:15;;;;;;;15.13;0.90;;;;;;;32.11;30.75;100814.66;7394691;19;20040;-92
2024/02/19 08:15:41;;;;;;;0.75;0.30;;;;;;;31.87;31.07;100812.75;7394509;19;20018;-92
2024/02/19 08:18:08;;;;;;;7.63;0.55;;;;;;;31.90;31.01;100818.06;7396616;19;20018;-91
2024/02/19 08:20:37;;;;;;;0.13;0.13;;;;;;;31.66;31.29;100815.44;7394541;19;20028;-91
2024/02/19 08:23:04;;;;;;;0.63;0.17;;;;;;;31.89;31.25;100828.09;7398000;19;20014;-91
2024/02/19 08:25:30;;;;;;;0.10;0.05;;;;;;;31.55;31.49;100828.28;7393424;19;20014;-91
2024/02/19 08:27:56;;;;;;;1.80;0.80;;;;;;;31.16;31.92;100833.06;7390997;19;20364;-92
2024/02/19 08:30:22;;;;;;;5.93;0.82;;;;;;;32.07;31.21;100843.19;7393662;19;20113;-92
2024/02/19 08:32:48;;;;;;;7.25;1.00;;;;;;;31.75;31.24;100837.75;7396591;19;20007;-91
2024/02/19 08:35:15;;;;;;;3.03;0.70;;;;;;;31.18;31.74;100836.13;7393969;19;20022;-91
2024/02/19 08:37:42;;;;;;;2.78;0.55;;;;;;;30.95;32.17;100834.91;7394064;19;20019;-92
2024/02/19 08:40:09;;;;;;;1.23;0.90;;;;;;;30.93;31.93;100841.25;7394420;19;20010;-91
2024/02/19 08:42:35;;;;;;;7.68;0.52;;;;;;;31.40;31.53;100835.03;7394436;19;20018;-92
2024/02/19 08:45:05;;;;;;;1.27;0.80;;;;;;;34.38;29.25;100835.47;7394741;19;20368;-92
2024/02/19 08:47:31;;;;;;;1.17;0.38;;;;;;;35.94;27.42;100847.09;7396743;19;20018;-91
2024/02/19 08:49:57;;;;;;;1.60;0.60;;;;;;;36.48;26.92;100854.13;7394945;19;20467;-91
2024/02/19 08:52:25;;;;;;;0.10;0.00;;;;;;;37.05;26.71;100858.19;7393620;19;20033;-91
2024/02/19 08:54:51;;;;;;;5.55;0.63;;;;;;;37.38;26.41;100857.13;7394289;19;20014;-90
2024/02/19 08:57:17;;;;;;;2.75;0.32;;;;;;;38.27;25.78;100859.81;7394415;19;20022;-91
2024/02/19 08:59:46;;;;;;;3.35;0.22;;;;;;;38.79;25.24;100859.59;7393963;19;20037;-91
2024/02/19 09:02:12;;;;;;;2.47;0.30;;;;;;;38.97;24.64;100853.91;7393840;19;20467;-91
2024/02/19 09:04:42;;;;;;;0.40;0.35;;;;;;;38.73;24.77;100864.34;7397084;19;20022;-91
2024/02/19 09:07:09;;;;;;;3.75;0.50;;;;;;;38.66;24.48;100866.22;7394987;19;20046;-91
2024/02/19 09:09:36;;;;;;;8.20;0.82;;;;;;;39.01;24.52;100860.69;7394607;19;20018;-92
2024/02/19 09:12:03;;;;;;;10.00;0.57;;;;;;;39.14;24.48;100867.88;7394907;19;20015;-91
2024/02/19 09:14:29;;;;;;;5.38;0.30;;;;;;;39.42;23.75;100863.41;7394182;19;20014;-92
2024/02/19 09:16:56;;;;;;;4.45;1.13;;;;;;;39.06;23.81;100868.22;7396147;19;20066;-91
2024/02/19 09:19:23;;;;;;;2.80;0.57;;;;;;;39.54;23.92;100869.81;7394159;19;20057;-91
2024/02/19 09:21:49;;;;;;;1.20;0.82;;;;;;;39.72;23.86;100875.78;7394262;19;20010;-91
2024/02/19 09:24:15;;;;;;;1.02;0.75;;;;;;;39.92;23.60;100873.75;7394417;19;20455;-91
2024/02/19 09:26:42;;;;;;;2.10;0.98;;;;;;;40.04;23.58;100877.28;7392042;19;20086;-91
2024/02/19 09:29:08;;;;;;;1.27;0.85;;;;;;;39.75;23.47;100889.03;7390193;19;20014;-91
2024/02/19 09:31:34;;;;;;;4.05;0.82;;;;;;;39.51;23.53;100888.63;7391291;19;20014;-91
2024/02/19 09:34:01;;;;;;;7.43;0.95;;;;;;;39.25;23.65;100896.88;7396683;19;20011;-91
2024/02/19 09:36:27;;;;;;;2.10;1.08;;;;;;;39.64;23.48;100907.47;7389602;19;20022;-92
2024/02/19 09:38:54;;;;;;;11.23;1.13;;;;;;;40.05;22.87;100899.19;7391091;19;20475;-91
2024/02/19 09:41:20;;;;;;;8.90;1.10;;;;;;;40.39;23.00;100902.91;7391862;19;20029;-91
2024/02/19 09:43:49;;;;;;;1.45;0.63;;;;;;;40.55;22.81;100900.69;7393729;19;20014;-91
2024/02/19 09:46:18;;;;;;;3.85;1.45;;;;;;;40.29;22.99;100914.88;7392118;19;20021;-91
2024/02/19 09:48:49;;;;;;;6.85;0.95;;;;;;;40.40;22.62;100916.06;7391035;19;20019;-91
2024/02/19 09:51:21;;;;;;;11.38;0.73;;;;;;;40.56;22.90;100917.56;7391268;19;20059;-89
2024/02/19 09:53:51;;;;;;;0.40;0.28;;;;;;;40.70;22.38;100940.78;7388940;19;20022;-91
2024/02/19 09:56:26;;;;;;;7.30;1.40;;;;;;;40.76;22.37;100923.53;7394648;19;20021;-90
2024/02/19 09:58:56;;;;;;;0.82;0.55;;;;;;;40.27;22.89;100929.38;7391254;19;20266;-91
2024/02/19 10:01:24;;;;;;;4.60;0.20;;;;;;;40.06;23.32;100924.81;7390793;19;20037;-91
2024/02/19 10:03:51;;;;;;;7.70;0.70;;;;;;;39.93;23.05;100928.56;7389960;19;20021;-90
2024/02/19 10:06:17;;;;;;;3.78;0.93;;;;;;;39.93;23.26;100921.97;7392344;19;20026;-90
2024/02/19 10:08:45;;;;;;;6.13;0.90;;;;;;;40.26;22.44;100919.13;7390270;19;20124;-90
2024/02/19 10:11:12;;;;;;;0.47;0.47;;;;;;;40.46;22.68;100925.16;7388754;19;20018;-91
2024/02/19 10:13:42;;;;;;;1.60;0.68;;;;;;;40.48;22.80;100942.75;7389892;19;20014;-91
2024/02/19 10:16:11;;;;;;;1.58;0.75;;;;;;;40.36;22.74;100933.41;7390680;19;20007;-91
2024/02/19 10:18:38;;;;;;;1.55;0.90;;;;;;;40.51;22.80;100933.41;7391954;19;20029;-93
2024/02/19 10:21:04;;;;;;;4.55;0.75;;;;;;;41.09;22.03;100926.41;7391617;19;20011;-86
2024/02/19 10:23:30;;;;;;;2.28;0.20;;;;;;;41.72;21.40;100931.88;7388737;19;20360;-82
2024/02/19 10:25:56;;;;;;;0.32;0.30;;;;;;;42.09;21.57;100934.78;7386486;19;20023;-82
2024/02/19 10:28:23;;;;;;;0.35;0.30;;;;;;;41.54;22.22;100940.69;7389039;19;20018;-82
2024/02/19 10:30:51;;;;;;;6.03;1.13;;;;;;;41.18;21.97;100936.25;7385196;19;20021;-82
2024/02/19 10:33:19;;;;;;;6.10;0.35;;;;;;;40.62;21.80;100940.44;7387524;19;20018;-81
2024/02/19 10:35:49;;;;;;;1.23;0.30;;;;;;;40.80;21.90;100947.81;7385887;19;20023;-82
2024/02/19 10:38:16;;;;;;;8.80;0.87;;;;;;;40.99;21.52;100952.31;7389904;19;20471;-81
2024/02/19 10:40:43;;;;;;;1.30;0.50;;;;;;;41.12;21.74;100954.31;7395981;19;20015;-81
2024/02/19 10:43:10;;;;;;;4.10;0.65;;;;;;;40.85;21.40;100939.28;7396673;19;20015;-81
2024/02/19 10:45:38;;;;;;;2.95;0.90;;;;;;;40.66;22.02;100949.38;7393917;19;20112;-81
2024/02/19 10:48:05;;;;;;;1.55;0.85;;;;;;;40.77;21.52;100951.31;7392636;19;20021;-81
2024/02/19 10:50:32;;;;;;;1.55;1.00;;;;;;;40.58;21.93;100954.88;7394845;19;20082;-81
2024/02/19 10:52:58;;;;;;;7.97;0.60;;;;;;;40.42;21.60;100965.84;7391628;19;20018;-80
2024/02/19 10:55:27;;;;;;;7.30;0.65;;;;;;;40.25;21.68;100951.91;7393688;19;20022;-81
2024/02/19 10:57:55;;;;;;;0.93;0.60;;;;;;;40.47;21.61;100955.84;7394960;19;20014;-81
2024/02/19 11:00:25;;;;;;;1.63;0.63;;;;;;;40.71;21.60;100962.75;7396010;19;20650;-81
2024/02/19 11:03:06;;;;;;;4.53;0.30;;;;;;;40.84;21.34;100958.97;7397069;19;20029;-81
2024/02/19 11:05:43;;;;;;;0.20;0.20;;;;;;;40.46;21.07;100966.03;7393303;19;20010;-80
2024/02/19 11:08:20;;;;;;;5.93;0.60;;;;;;;40.49;21.23;100970.53;7395319;19;20460;-81
2024/02/19 11:10:49;;;;;;;3.50;0.90;;;;;;;40.42;21.33;100966.59;7396569;19;20030;-81
2024/02/19 11:13:26;;;;;;;0.40;0.40;;;;;;;39.83;21.75;100971.13;7396911;19;20018;-81
2024/02/19 11:15:55;;;;;;;4.57;0.95;;;;;;;39.16;22.35;100964.16;7396441;19;20019;-81
2024/02/19 11:18:22;;;;;;;25.63;1.70;;;;;;;38.80;22.61;100963.06;7393946;19;20086;-81
2024/02/19 11:20:50;;;;;;;2.53;0.52;;;;;;;38.60;22.88;100968.56;7395022;19;20023;-81